sensor_id;sensor_type;location;lat;lon;timestamp;temperature;humidity
28845;DHT22;15976;47.938;7.758;2023-04-25T00:02:24;11.60;58.90
28845;DHT22;15976;47.938;7.758;2023-04-25T00:04:51;11.60;59.10
28845;DHT22;15976;47.938;7.758;2023-04-25T00:07:19;11.50;59.30
28845;DHT22;15976;47.938;7.758;2023-04-25T00:09:46;11.50;59.70
28845;DHT22;15976;47.938;7.758;2023-04-25T00:12:13;11.40;59.90
28845;DHT22;15976;47.938;7.758;2023-04-25T00:14:40;11.50;60.20
28845;DHT22;15976;47.938;7.758;2023-04-25T00:17:07;11.40;60.30
28845;DHT22;15976;47.938;7.758;2023-04-25T00:19:34;11.40;60.40
28845;DHT22;15976;47.938;7.758;2023-04-25T00:22:01;11.40;60.40
28845;DHT22;15976;47.938;7.758;2023-04-25T00:24:28;11.30;60.50
28845;DHT22;15976;47.938;7.758;2023-04-25T00:26:55;11.40;60.70
28845;DHT22;15976;47.938;7.758;2023-04-25T00:29:22;11.30;60.80
28845;DHT22;15976;47.938;7.758;2023-04-25T00:31:49;11.40;60.90
28845;DHT22;15976;47.938;7.758;2023-04-25T00:34:16;11.30;61.10
28845;DHT22;15976;47.938;7.758;2023-04-25T00:36:43;11.30;61.20
28845;DHT22;15976;47.938;7.758;2023-04-25T00:39:11;11.40;61.50
28845;DHT22;15976;47.938;7.758;2023-04-25T00:41:38;11.40;61.50
28845;DHT22;15976;47.938;7.758;2023-04-25T00:44:08;11.40;61.60
28845;DHT22;15976;47.938;7.758;2023-04-25T00:46:39;11.30;61.60
28845;DHT22;15976;47.938;7.758;2023-04-25T00:49:06;11.30;61.70
28845;DHT22;15976;47.938;7.758;2023-04-25T00:51:33;11.30;61.90
28845;DHT22;15976;47.938;7.758;2023-04-25T00:54:01;11.20;62.10
28845;DHT22;15976;47.938;7.758;2023-04-25T00:56:28;11.10;62.40
28845;DHT22;15976;47.938;7.758;2023-04-25T00:58:56;11.10;62.60
28845;DHT22;15976;47.938;7.758;2023-04-25T01:01:23;11.00;63.00
28845;DHT22;15976;47.938;7.758;2023-04-25T01:03:50;11.00;63.20
28845;DHT22;15976;47.938;7.758;2023-04-25T01:06:18;11.00;63.40
28845;DHT22;15976;47.938;7.758;2023-04-25T01:08:45;11.00;63.40
28845;DHT22;15976;47.938;7.758;2023-04-25T01:11:12;11.00;63.50
28845;DHT22;15976;47.938;7.758;2023-04-25T01:13:39;10.90;63.60
28845;DHT22;15976;47.938;7.758;2023-04-25T01:16:06;10.90;63.60
28845;DHT22;15976;47.938;7.758;2023-04-25T01:18:33;10.90;63.70
28845;DHT22;15976;47.938;7.758;2023-04-25T01:21:08;11.00;63.70
28845;DHT22;15976;47.938;7.758;2023-04-25T01:23:38;11.00;63.60
28845;DHT22;15976;47.938;7.758;2023-04-25T01:26:08;11.00;63.60
28845;DHT22;15976;47.938;7.758;2023-04-25T01:28:36;11.00;63.60
28845;DHT22;15976;47.938;7.758;2023-04-25T01:31:04;11.00;63.50
28845;DHT22;15976;47.938;7.758;2023-04-25T01:33:36;11.00;63.40
28845;DHT22;15976;47.938;7.758;2023-04-25T01:36:03;11.10;63.50
28845;DHT22;15976;47.938;7.758;2023-04-25T01:38:30;11.00;63.40
28845;DHT22;15976;47.938;7.758;2023-04-25T01:40:59;11.00;63.30
28845;DHT22;15976;47.938;7.758;2023-04-25T01:43:27;11.10;63.30
28845;DHT22;15976;47.938;7.758;2023-04-25T01:45:55;11.10;63.30
28845;DHT22;15976;47.938;7.758;2023-04-25T01:48:23;11.10;63.20
28845;DHT22;15976;47.938;7.758;2023-04-25T01:50:50;11.10;63.20
28845;DHT22;15976;47.938;7.758;2023-04-25T01:53:17;11.10;63.20
28845;DHT22;15976;47.938;7.758;2023-04-25T01:55:45;11.10;63.20
28845;DHT22;15976;47.938;7.758;2023-04-25T01:58:15;11.10;63.00
28845;DHT22;15976;47.938;7.758;2023-04-25T02:01:00;11.20;63.00
28845;DHT22;15976;47.938;7.758;2023-04-25T02:03:36;11.10;62.80
28845;DHT22;15976;47.938;7.758;2023-04-25T02:06:07;11.10;62.80
28845;DHT22;15976;47.938;7.758;2023-04-25T02:08:38;11.20;62.80
28845;DHT22;15976;47.938;7.758;2023-04-25T02:11:05;11.10;62.80
28845;DHT22;15976;47.938;7.758;2023-04-25T02:13:40;11.10;62.80
28845;DHT22;15976;47.938;7.758;2023-04-25T02:16:25;11.10;62.80
28845;DHT22;15976;47.938;7.758;2023-04-25T02:18:52;11.10;62.80
28845;DHT22;15976;47.938;7.758;2023-04-25T02:21:20;11.10;62.90
28845;DHT22;15976;47.938;7.758;2023-04-25T02:23:47;11.10;63.00
28845;DHT22;15976;47.938;7.758;2023-04-25T02:26:16;11.10;63.00
28845;DHT22;15976;47.938;7.758;2023-04-25T02:28:42;11.10;63.00
28845;DHT22;15976;47.938;7.758;2023-04-25T02:31:10;11.10;63.00
28845;DHT22;15976;47.938;7.758;2023-04-25T02:33:37;11.10;63.00
28845;DHT22;15976;47.938;7.758;2023-04-25T02:36:05;11.10;63.00
28845;DHT22;15976;47.938;7.758;2023-04-25T02:38:32;11.10;62.90
28845;DHT22;15976;47.938;7.758;2023-04-25T02:40:59;11.10;62.90
28845;DHT22;15976;47.938;7.758;2023-04-25T02:43:26;11.10;62.80
28845;DHT22;15976;47.938;7.758;2023-04-25T02:45:53;11.10;62.80
28845;DHT22;15976;47.938;7.758;2023-04-25T02:48:23;11.10;62.70
28845;DHT22;15976;47.938;7.758;2023-04-25T02:50:50;11.10;62.60
28845;DHT22;15976;47.938;7.758;2023-04-25T02:53:17;11.00;62.60
28845;DHT22;15976;47.938;7.758;2023-04-25T02:55:48;11.00;62.70
28845;DHT22;15976;47.938;7.758;2023-04-25T02:58:15;11.00;62.90
28845;DHT22;15976;47.938;7.758;2023-04-25T03:00:48;10.90;62.90
28845;DHT22;15976;47.938;7.758;2023-04-25T03:03:16;10.90;62.90
28845;DHT22;15976;47.938;7.758;2023-04-25T03:05:50;10.80;62.80
28845;DHT22;15976;47.938;7.758;2023-04-25T03:08:22;10.90;62.80
28845;DHT22;15976;47.938;7.758;2023-04-25T03:10:49;10.90;62.90
28845;DHT22;15976;47.938;7.758;2023-04-25T03:13:18;10.90;62.80
28845;DHT22;15976;47.938;7.758;2023-04-25T03:15:45;10.80;62.80
28845;DHT22;15976;47.938;7.758;2023-04-25T03:18:12;10.90;63.10
28845;DHT22;15976;47.938;7.758;2023-04-25T03:20:40;10.80;63.20
28845;DHT22;15976;47.938;7.758;2023-04-25T03:23:08;10.80;63.40
28845;DHT22;15976;47.938;7.758;2023-04-25T03:25:38;10.90;63.30
28845;DHT22;15976;47.938;7.758;2023-04-25T03:28:05;10.90;63.20
28845;DHT22;15976;47.938;7.758;2023-04-25T03:30:32;10.80;62.90
28845;DHT22;15976;47.938;7.758;2023-04-25T03:32:59;10.80;62.80
28845;DHT22;15976;47.938;7.758;2023-04-25T03:35:26;10.80;62.70
28845;DHT22;15976;47.938;7.758;2023-04-25T03:37:54;10.70;62.70
28845;DHT22;15976;47.938;7.758;2023-04-25T03:40:26;10.70;62.90
28845;DHT22;15976;47.938;7.758;2023-04-25T03:43:16;10.60;63.00
28845;DHT22;15976;47.938;7.758;2023-04-25T03:45:51;10.50;63.20
28845;DHT22;15976;47.938;7.758;2023-04-25T03:48:21;10.40;63.20
28845;DHT22;15976;47.938;7.758;2023-04-25T03:50:49;10.40;63.30
28845;DHT22;15976;47.938;7.758;2023-04-25T03:53:16;10.40;63.40
28845;DHT22;15976;47.938;7.758;2023-04-25T03:56:12;10.40;63.50
28845;DHT22;15976;47.938;7.758;2023-04-25T03:58:40;10.30;63.50
28845;DHT22;15976;47.938;7.758;2023-04-25T04:01:07;10.30;63.70
28845;DHT22;15976;47.938;7.758;2023-04-25T04:03:37;10.30;63.80
28845;DHT22;15976;47.938;7.758;2023-04-25T04:06:05;10.30;63.90
28845;DHT22;15976;47.938;7.758;2023-04-25T04:08:36;10.30;64.00
28845;DHT22;15976;47.938;7.758;2023-04-25T04:11:03;10.30;64.00
28845;DHT22;15976;47.938;7.758;2023-04-25T04:13:31;10.30;63.90
28845;DHT22;15976;47.938;7.758;2023-04-25T04:15:59;10.40;64.00
28845;DHT22;15976;47.938;7.758;2023-04-25T04:18:26;10.40;64.00
28845;DHT22;15976;47.938;7.758;2023-04-25T04:20:55;10.40;63.80
28845;DHT22;15976;47.938;7.758;2023-04-25T04:23:26;10.50;63.90
28845;DHT22;15976;47.938;7.758;2023-04-25T04:25:56;10.50;63.80
28845;DHT22;15976;47.938;7.758;2023-04-25T04:28:47;10.50;63.70
28845;DHT22;15976;47.938;7.758;2023-04-25T04:31:33;10.50;63.90
28845;DHT22;15976;47.938;7.758;2023-04-25T04:34:01;10.50;63.80
28845;DHT22;15976;47.938;7.758;2023-04-25T04:36:29;10.60;63.60
28845;DHT22;15976;47.938;7.758;2023-04-25T04:39:01;10.60;63.60
28845;DHT22;15976;47.938;7.758;2023-04-25T04:42:08;10.70;63.60
28845;DHT22;15976;47.938;7.758;2023-04-25T04:44:53;10.70;63.40
28845;DHT22;15976;47.938;7.758;2023-04-25T04:47:34;10.70;63.20
28845;DHT22;15976;47.938;7.758;2023-04-25T04:50:17;10.80;63.20
28845;DHT22;15976;47.938;7.758;2023-04-25T04:53:04;10.80;63.00
28845;DHT22;15976;47.938;7.758;2023-04-25T04:55:41;10.90;63.00
28845;DHT22;15976;47.938;7.758;2023-04-25T04:58:28;10.90;62.80
28845;DHT22;15976;47.938;7.758;2023-04-25T05:01:10;10.90;62.70
28845;DHT22;15976;47.938;7.758;2023-04-25T05:04:14;11.00;62.80
28845;DHT22;15976;47.938;7.758;2023-04-25T05:07:05;11.00;62.80
28845;DHT22;15976;47.938;7.758;2023-04-25T05:09:46;10.90;63.10
28845;DHT22;15976;47.938;7.758;2023-04-25T05:12:31;10.80;64.50
28845;DHT22;15976;47.938;7.758;2023-04-25T05:15:16;10.50;66.30
28845;DHT22;15976;47.938;7.758;2023-04-25T05:17:52;10.20;68.10
28845;DHT22;15976;47.938;7.758;2023-04-25T05:20:54;10.00;69.50
28845;DHT22;15976;47.938;7.758;2023-04-25T05:23:45;9.70;71.00
28845;DHT22;15976;47.938;7.758;2023-04-25T05:26:45;9.50;73.10
28845;DHT22;15976;47.938;7.758;2023-04-25T05:29:43;9.20;74.70
28845;DHT22;15976;47.938;7.758;2023-04-25T05:32:22;9.00;76.20
28845;DHT22;15976;47.938;7.758;2023-04-25T05:34:50;8.80;77.80
28845;DHT22;15976;47.938;7.758;2023-04-25T05:37:26;8.80;79.00
28845;DHT22;15976;47.938;7.758;2023-04-25T05:40:05;8.70;80.40
28845;DHT22;15976;47.938;7.758;2023-04-25T05:42:49;8.60;81.80
28845;DHT22;15976;47.938;7.758;2023-04-25T05:45:26;8.50;82.90
28845;DHT22;15976;47.938;7.758;2023-04-25T05:47:56;8.40;84.50
28845;DHT22;15976;47.938;7.758;2023-04-25T05:50:38;8.40;85.80
28845;DHT22;15976;47.938;7.758;2023-04-25T05:53:19;8.40;87.00
28845;DHT22;15976;47.938;7.758;2023-04-25T05:55:52;8.30;87.40
28845;DHT22;15976;47.938;7.758;2023-04-25T05:58:25;8.30;88.30
28845;DHT22;15976;47.938;7.758;2023-04-25T06:00:53;8.40;88.60
28845;DHT22;15976;47.938;7.758;2023-04-25T06:03:22;8.40;88.60
28845;DHT22;15976;47.938;7.758;2023-04-25T06:05:50;8.40;89.00
28845;DHT22;15976;47.938;7.758;2023-04-25T06:08:19;8.40;89.10
28845;DHT22;15976;47.938;7.758;2023-04-25T06:10:46;8.40;89.40
28845;DHT22;15976;47.938;7.758;2023-04-25T06:13:13;8.40;89.80
28845;DHT22;15976;47.938;7.758;2023-04-25T06:15:41;8.50;89.90
28845;DHT22;15976;47.938;7.758;2023-04-25T06:18:09;8.50;89.80
28845;DHT22;15976;47.938;7.758;2023-04-25T06:20:36;8.60;89.90
28845;DHT22;15976;47.938;7.758;2023-04-25T06:23:03;8.60;89.80
28845;DHT22;15976;47.938;7.758;2023-04-25T06:25:50;8.60;89.80
28845;DHT22;15976;47.938;7.758;2023-04-25T06:28:18;8.60;89.80
28845;DHT22;15976;47.938;7.758;2023-04-25T06:30:46;8.70;90.00
28845;DHT22;15976;47.938;7.758;2023-04-25T06:33:17;8.70;89.80
28845;DHT22;15976;47.938;7.758;2023-04-25T06:35:45;8.70;89.90
28845;DHT22;15976;47.938;7.758;2023-04-25T06:38:15;8.60;89.90
28845;DHT22;15976;47.938;7.758;2023-04-25T06:40:46;8.70;90.30
28845;DHT22;15976;47.938;7.758;2023-04-25T06:43:14;8.70;90.50
28845;DHT22;15976;47.938;7.758;2023-04-25T06:45:54;8.70;90.40
28845;DHT22;15976;47.938;7.758;2023-04-25T06:48:27;8.70;90.40
28845;DHT22;15976;47.938;7.758;2023-04-25T06:50:57;8.70;90.30
28845;DHT22;15976;47.938;7.758;2023-04-25T06:53:26;8.60;90.50
28845;DHT22;15976;47.938;7.758;2023-04-25T06:55:58;8.60;90.80
28845;DHT22;15976;47.938;7.758;2023-04-25T06:58:34;8.50;91.00
28845;DHT22;15976;47.938;7.758;2023-04-25T07:01:12;8.40;91.40
28845;DHT22;15976;47.938;7.758;2023-04-25T07:03:39;8.40;92.00
28845;DHT22;15976;47.938;7.758;2023-04-25T07:06:13;8.50;92.10
28845;DHT22;15976;47.938;7.758;2023-04-25T07:08:40;8.40;92.30
28845;DHT22;15976;47.938;7.758;2023-04-25T07:11:07;8.50;92.50
28845;DHT22;15976;47.938;7.758;2023-04-25T07:13:36;8.50;92.30
28845;DHT22;15976;47.938;7.758;2023-04-25T07:16:03;8.40;92.40
28845;DHT22;15976;47.938;7.758;2023-04-25T07:18:33;8.40;92.80
28845;DHT22;15976;47.938;7.758;2023-04-25T07:21:02;8.40;92.90
28845;DHT22;15976;47.938;7.758;2023-04-25T07:23:32;8.50;93.20
28845;DHT22;15976;47.938;7.758;2023-04-25T07:26:07;8.60;93.10
28845;DHT22;15976;47.938;7.758;2023-04-25T07:28:36;8.60;93.00
28845;DHT22;15976;47.938;7.758;2023-04-25T07:31:04;8.60;93.20
28845;DHT22;15976;47.938;7.758;2023-04-25T07:33:36;8.60;93.30
28845;DHT22;15976;47.938;7.758;2023-04-25T07:36:04;8.60;93.40
28845;DHT22;15976;47.938;7.758;2023-04-25T07:38:32;8.60;93.70
28845;DHT22;15976;47.938;7.758;2023-04-25T07:41:03;8.70;93.70
28845;DHT22;15976;47.938;7.758;2023-04-25T07:43:46;8.70;93.60
28845;DHT22;15976;47.938;7.758;2023-04-25T07:46:13;8.70;93.50
28845;DHT22;15976;47.938;7.758;2023-04-25T07:48:42;8.60;93.40
28845;DHT22;15976;47.938;7.758;2023-04-25T07:51:10;8.50;93.80
28845;DHT22;15976;47.938;7.758;2023-04-25T07:53:38;8.60;94.00
28845;DHT22;15976;47.938;7.758;2023-04-25T07:56:11;8.60;94.50
28845;DHT22;15976;47.938;7.758;2023-04-25T07:58:41;8.70;94.30
28845;DHT22;15976;47.938;7.758;2023-04-25T08:01:12;8.80;94.30
28845;DHT22;15976;47.938;7.758;2023-04-25T08:03:53;8.90;94.40
28845;DHT22;15976;47.938;7.758;2023-04-25T08:06:41;8.90;94.10
28845;DHT22;15976;47.938;7.758;2023-04-25T08:09:16;9.00;94.50
28845;DHT22;15976;47.938;7.758;2023-04-25T08:11:45;9.10;94.40
28845;DHT22;15976;47.938;7.758;2023-04-25T08:14:15;9.10;94.20
28845;DHT22;15976;47.938;7.758;2023-04-25T08:16:48;9.10;94.50
28845;DHT22;15976;47.938;7.758;2023-04-25T08:19:16;9.10;94.50
28845;DHT22;15976;47.938;7.758;2023-04-25T08:21:44;9.20;94.50
28845;DHT22;15976;47.938;7.758;2023-04-25T08:24:16;9.20;94.10
28845;DHT22;15976;47.938;7.758;2023-04-25T08:26:44;9.20;94.10
28845;DHT22;15976;47.938;7.758;2023-04-25T08:29:15;9.10;94.30
28845;DHT22;15976;47.938;7.758;2023-04-25T08:31:47;9.10;94.30
28845;DHT22;15976;47.938;7.758;2023-04-25T08:34:15;9.10;94.30
28845;DHT22;15976;47.938;7.758;2023-04-25T08:36:46;9.20;94.50
28845;DHT22;15976;47.938;7.758;2023-04-25T08:39:37;9.10;94.60
28845;DHT22;15976;47.938;7.758;2023-04-25T08:42:42;9.20;94.70
28845;DHT22;15976;47.938;7.758;2023-04-25T08:45:10;9.30;95.00
28845;DHT22;15976;47.938;7.758;2023-04-25T08:47:40;9.40;95.10
28845;DHT22;15976;47.938;7.758;2023-04-25T08:50:08;9.60;95.10
28845;DHT22;15976;47.938;7.758;2023-04-25T08:52:46;9.70;95.00
28845;DHT22;15976;47.938;7.758;2023-04-25T08:55:15;9.90;94.90
28845;DHT22;15976;47.938;7.758;2023-04-25T08:57:47;10.00;94.50
28845;DHT22;15976;47.938;7.758;2023-04-25T09:00:20;10.00;94.20
28845;DHT22;15976;47.938;7.758;2023-04-25T09:02:49;10.00;94.50
28845;DHT22;15976;47.938;7.758;2023-04-25T09:05:27;10.10;94.40
28845;DHT22;15976;47.938;7.758;2023-04-25T09:08:14;10.30;94.20
28845;DHT22;15976;47.938;7.758;2023-04-25T09:11:02;10.40;94.20
28845;DHT22;15976;47.938;7.758;2023-04-25T09:13:41;10.50;94.00
28845;DHT22;15976;47.938;7.758;2023-04-25T09:16:58;10.60;94.10
28845;DHT22;15976;47.938;7.758;2023-04-25T09:19:45;10.70;93.70
28845;DHT22;15976;47.938;7.758;2023-04-25T09:22:45;10.70;93.70
28845;DHT22;15976;47.938;7.758;2023-04-25T09:25:25;10.80;93.50
28845;DHT22;15976;47.938;7.758;2023-04-25T09:28:14;10.80;93.30
28845;DHT22;15976;47.938;7.758;2023-04-25T09:30:56;10.80;93.40
28845;DHT22;15976;47.938;7.758;2023-04-25T09:33:42;10.70;93.20
28845;DHT22;15976;47.938;7.758;2023-04-25T09:37:02;10.80;93.40
28845;DHT22;15976;47.938;7.758;2023-04-25T09:40:06;10.90;93.80
28845;DHT22;15976;47.938;7.758;2023-04-25T09:42:47;11.10;93.70
28845;DHT22;15976;47.938;7.758;2023-04-25T09:46:37;11.20;93.50
28845;DHT22;15976;47.938;7.758;2023-04-25T09:49:28;11.40;93.00
28845;DHT22;15976;47.938;7.758;2023-04-25T09:52:21;11.60;92.80
28845;DHT22;15976;47.938;7.758;2023-04-25T09:55:32;11.80;92.50
28845;DHT22;15976;47.938;7.758;2023-04-25T09:59:22;11.80;92.50
28845;DHT22;15976;47.938;7.758;2023-04-25T10:06:24;11.90;92.30
28845;DHT22;15976;47.938;7.758;2023-04-25T10:09:04;12.10;92.70
28845;DHT22;15976;47.938;7.758;2023-04-25T10:12:18;12.40;93.00
28845;DHT22;15976;47.938;7.758;2023-04-25T10:15:02;13.30;93.50
28845;DHT22;15976;47.938;7.758;2023-04-25T10:17:48;15.00;91.60
28845;DHT22;15976;47.938;7.758;2023-04-25T10:20:47;16.30;83.60
28845;DHT22;15976;47.938;7.758;2023-04-25T10:23:23;16.20;79.90
28845;DHT22;15976;47.938;7.758;2023-04-25T10:25:51;15.80;80.80
28845;DHT22;15976;47.938;7.758;2023-04-25T10:28:20;15.50;83.50
28845;DHT22;15976;47.938;7.758;2023-04-25T10:31:16;16.30;85.20
28845;DHT22;15976;47.938;7.758;2023-04-25T10:33:44;18.60;76.90
28845;DHT22;15976;47.938;7.758;2023-04-25T10:36:17;19.90;71.80
28845;DHT22;15976;47.938;7.758;2023-04-25T10:38:47;20.20;68.60
28845;DHT22;15976;47.938;7.758;2023-04-25T10:41:14;20.00;66.30
28845;DHT22;15976;47.938;7.758;2023-04-25T10:43:45;19.30;65.20
28845;DHT22;15976;47.938;7.758;2023-04-25T10:46:26;18.70;65.30
28845;DHT22;15976;47.938;7.758;2023-04-25T10:48:59;18.10;63.20
28845;DHT22;15976;47.938;7.758;2023-04-25T10:51:34;17.60;63.70
28845;DHT22;15976;47.938;7.758;2023-04-25T10:54:22;17.30;64.00
28845;DHT22;15976;47.938;7.758;2023-04-25T11:00:27;17.20;64.10
28845;DHT22;15976;47.938;7.758;2023-04-25T11:03:28;17.90;60.20
28845;DHT22;15976;47.938;7.758;2023-04-25T11:06:51;18.00;59.60
28845;DHT22;15976;47.938;7.758;2023-04-25T11:09:54;18.00;58.90
28845;DHT22;15976;47.938;7.758;2023-04-25T11:12:33;17.90;59.80
28845;DHT22;15976;47.938;7.758;2023-04-25T11:15:15;17.80;58.10
28845;DHT22;15976;47.938;7.758;2023-04-25T11:18:15;17.40;57.90
28845;DHT22;15976;47.938;7.758;2023-04-25T11:21:20;17.00;58.00
28845;DHT22;15976;47.938;7.758;2023-04-25T11:24:23;16.60;59.20
28845;DHT22;15976;47.938;7.758;2023-04-25T11:27:01;16.10;60.40
28845;DHT22;15976;47.938;7.758;2023-04-25T11:29:34;15.70;61.50
28845;DHT22;15976;47.938;7.758;2023-04-25T11:32:06;15.30;62.80
28845;DHT22;15976;47.938;7.758;2023-04-25T11:34:34;14.90;63.90
28845;DHT22;15976;47.938;7.758;2023-04-25T11:37:05;14.50;64.40
28845;DHT22;15976;47.938;7.758;2023-04-25T11:39:33;14.20;65.60
28845;DHT22;15976;47.938;7.758;2023-04-25T11:42:14;13.90;65.50
28845;DHT22;15976;47.938;7.758;2023-04-25T11:44:56;13.70;65.30
28845;DHT22;15976;47.938;7.758;2023-04-25T11:47:30;14.70;67.50
28845;DHT22;15976;47.938;7.758;2023-04-25T11:50:05;16.80;62.10
28845;DHT22;15976;47.938;7.758;2023-04-25T11:52:43;17.60;58.00
28845;DHT22;15976;47.938;7.758;2023-04-25T11:55:20;17.60;57.30
28845;DHT22;15976;47.938;7.758;2023-04-25T11:58:05;18.20;57.90
28845;DHT22;15976;47.938;7.758;2023-04-25T12:01:05;20.50;55.20
28845;DHT22;15976;47.938;7.758;2023-04-25T12:03:55;23.00;51.10
28845;DHT22;15976;47.938;7.758;2023-04-25T12:06:44;24.70;47.10
28845;DHT22;15976;47.938;7.758;2023-04-25T12:09:29;25.20;45.60
28845;DHT22;15976;47.938;7.758;2023-04-25T12:12:13;24.80;44.40
28845;DHT22;15976;47.938;7.758;2023-04-25T12:14:47;23.90;45.40
28845;DHT22;15976;47.938;7.758;2023-04-25T12:17:28;22.90;45.50
28845;DHT22;15976;47.938;7.758;2023-04-25T12:19:56;21.90;46.90
28845;DHT22;15976;47.938;7.758;2023-04-25T12:22:24;21.40;47.20
28845;DHT22;15976;47.938;7.758;2023-04-25T12:24:56;21.20;47.00
28845;DHT22;15976;47.938;7.758;2023-04-25T12:27:25;21.10;47.30
28845;DHT22;15976;47.938;7.758;2023-04-25T12:29:56;22.00;46.70
28845;DHT22;15976;47.938;7.758;2023-04-25T12:32:23;23.50;43.70
28845;DHT22;15976;47.938;7.758;2023-04-25T12:34:50;24.50;41.50
28845;DHT22;15976;47.938;7.758;2023-04-25T12:37:18;24.90;40.50
28845;DHT22;15976;47.938;7.758;2023-04-25T12:39:45;24.80;40.00
28845;DHT22;15976;47.938;7.758;2023-04-25T12:42:13;24.50;40.50
28845;DHT22;15976;47.938;7.758;2023-04-25T12:44:40;25.60;41.00
28845;DHT22;15976;47.938;7.758;2023-04-25T12:47:08;27.40;38.90
28845;DHT22;15976;47.938;7.758;2023-04-25T12:49:35;29.10;36.10
28845;DHT22;15976;47.938;7.758;2023-04-25T12:52:02;30.20;34.90
28845;DHT22;15976;47.938;7.758;2023-04-25T12:54:29;31.30;33.80
28845;DHT22;15976;47.938;7.758;2023-04-25T12:56:57;31.30;32.60
28845;DHT22;15976;47.938;7.758;2023-04-25T12:59:24;30.40;32.70
28845;DHT22;15976;47.938;7.758;2023-04-25T13:01:51;29.30;33.90
28845;DHT22;15976;47.938;7.758;2023-04-25T13:04:18;28.30;34.70
28845;DHT22;15976;47.938;7.758;2023-04-25T13:06:48;28.10;34.10
28845;DHT22;15976;47.938;7.758;2023-04-25T13:09:15;27.80;33.70
28845;DHT22;15976;47.938;7.758;2023-04-25T13:11:42;27.70;33.30
28845;DHT22;15976;47.938;7.758;2023-04-25T13:14:09;27.70;32.50
28845;DHT22;15976;47.938;7.758;2023-04-25T13:16:36;27.10;32.70
28845;DHT22;15976;47.938;7.758;2023-04-25T13:19:03;26.80;34.20
28845;DHT22;15976;47.938;7.758;2023-04-25T13:21:30;27.90;33.90
28845;DHT22;15976;47.938;7.758;2023-04-25T13:24:01;28.70;31.80
28845;DHT22;15976;47.938;7.758;2023-04-25T13:26:28;28.60;30.40
28845;DHT22;15976;47.938;7.758;2023-04-25T13:28:55;28.60;30.80
28845;DHT22;15976;47.938;7.758;2023-04-25T13:31:22;29.60;30.90
28845;DHT22;15976;47.938;7.758;2023-04-25T13:34:05;30.90;29.90
28845;DHT22;15976;47.938;7.758;2023-04-25T13:36:58;32.10;27.60
28845;DHT22;15976;47.938;7.758;2023-04-25T13:39:47;32.70;26.80
28845;DHT22;15976;47.938;7.758;2023-04-25T13:42:14;32.30;26.60
28845;DHT22;15976;47.938;7.758;2023-04-25T13:44:41;32.20;26.20
28845;DHT22;15976;47.938;7.758;2023-04-25T13:47:13;32.40;26.90
28845;DHT22;15976;47.938;7.758;2023-04-25T13:49:55;32.10;26.80
28845;DHT22;15976;47.938;7.758;2023-04-25T13:52:22;30.90;27.20
28845;DHT22;15976;47.938;7.758;2023-04-25T13:55:04;29.50;28.30
28845;DHT22;15976;47.938;7.758;2023-04-25T13:57:34;28.10;29.90
28845;DHT22;15976;47.938;7.758;2023-04-25T14:00:05;26.80;31.40
28845;DHT22;15976;47.938;7.758;2023-04-25T14:02:38;25.60;32.80
28845;DHT22;15976;47.938;7.758;2023-04-25T14:05:07;24.50;34.20
28845;DHT22;15976;47.938;7.758;2023-04-25T14:07:38;23.40;35.60
28845;DHT22;15976;47.938;7.758;2023-04-25T14:10:08;22.60;36.70
28845;DHT22;15976;47.938;7.758;2023-04-25T14:12:38;21.80;37.70
28845;DHT22;15976;47.938;7.758;2023-04-25T14:15:08;21.10;38.60
28845;DHT22;15976;47.938;7.758;2023-04-25T14:17:36;20.40;39.70
28845;DHT22;15976;47.938;7.758;2023-04-25T14:20:03;19.80;40.70
28845;DHT22;15976;47.938;7.758;2023-04-25T14:22:32;19.40;41.30
28845;DHT22;15976;47.938;7.758;2023-04-25T14:24:59;19.00;41.90
28845;DHT22;15976;47.938;7.758;2023-04-25T14:27:27;18.80;42.80
28845;DHT22;15976;47.938;7.758;2023-04-25T14:29:55;18.60;43.80
28845;DHT22;15976;47.938;7.758;2023-04-25T14:32:58;18.30;44.70
28845;DHT22;15976;47.938;7.758;2023-04-25T14:36:39;18.00;46.90
28845;DHT22;15976;47.938;7.758;2023-04-25T14:39:38;17.60;47.70
28845;DHT22;15976;47.938;7.758;2023-04-25T14:42:05;17.30;48.30
28845;DHT22;15976;47.938;7.758;2023-04-25T14:44:32;17.00;50.00
28845;DHT22;15976;47.938;7.758;2023-04-25T14:46:59;16.90;51.30
28845;DHT22;15976;47.938;7.758;2023-04-25T14:49:27;16.80;51.60
28845;DHT22;15976;47.938;7.758;2023-04-25T14:51:55;16.70;51.80
28845;DHT22;15976;47.938;7.758;2023-04-25T14:54:22;16.50;52.90
28845;DHT22;15976;47.938;7.758;2023-04-25T14:56:48;16.20;54.40
28845;DHT22;15976;47.938;7.758;2023-04-25T14:59:16;16.10;55.70
28845;DHT22;15976;47.938;7.758;2023-04-25T15:01:43;15.90;56.50
28845;DHT22;15976;47.938;7.758;2023-04-25T15:04:10;15.90;56.40
28845;DHT22;15976;47.938;7.758;2023-04-25T15:06:39;15.80;56.80
28845;DHT22;15976;47.938;7.758;2023-04-25T15:09:07;15.70;56.70
28845;DHT22;15976;47.938;7.758;2023-04-25T15:11:37;15.60;56.80
28845;DHT22;15976;47.938;7.758;2023-04-25T15:14:04;15.40;56.40
28845;DHT22;15976;47.938;7.758;2023-04-25T15:16:31;15.30;55.60
28845;DHT22;15976;47.938;7.758;2023-04-25T15:18:58;15.10;55.60
28845;DHT22;15976;47.938;7.758;2023-04-25T15:21:26;14.90;55.80
28845;DHT22;15976;47.938;7.758;2023-04-25T15:23:53;14.90;56.00
28845;DHT22;15976;47.938;7.758;2023-04-25T15:26:23;14.80;56.30
28845;DHT22;15976;47.938;7.758;2023-04-25T15:29:01;14.70;56.70
28845;DHT22;15976;47.938;7.758;2023-04-25T15:31:34;14.50;57.20
28845;DHT22;15976;47.938;7.758;2023-04-25T15:34:08;14.40;58.10
28845;DHT22;15976;47.938;7.758;2023-04-25T15:36:38;14.20;58.00
28845;DHT22;15976;47.938;7.758;2023-04-25T15:39:16;14.20;58.50
28845;DHT22;15976;47.938;7.758;2023-04-25T15:46:47;14.10;60.30
28845;DHT22;15976;47.938;7.758;2023-04-25T15:49:35;13.80;61.40
28845;DHT22;15976;47.938;7.758;2023-04-25T15:55:42;12.90;65.20
28845;DHT22;15976;47.938;7.758;2023-04-25T15:58:34;12.80;66.00
28845;DHT22;15976;47.938;7.758;2023-04-25T16:01:04;12.70;66.70
28845;DHT22;15976;47.938;7.758;2023-04-25T16:03:33;12.50;67.50
28845;DHT22;15976;47.938;7.758;2023-04-25T16:06:02;12.30;68.50
28845;DHT22;15976;47.938;7.758;2023-04-25T16:08:36;12.30;69.20
28845;DHT22;15976;47.938;7.758;2023-04-25T16:11:35;12.40;69.80
28845;DHT22;15976;47.938;7.758;2023-04-25T16:14:02;12.40;69.20
28845;DHT22;15976;47.938;7.758;2023-04-25T16:16:29;12.50;69.20
28845;DHT22;15976;47.938;7.758;2023-04-25T16:18:56;12.50;68.80
28845;DHT22;15976;47.938;7.758;2023-04-25T16:21:23;12.50;68.60
28845;DHT22;15976;47.938;7.758;2023-04-25T16:23:50;12.40;68.40
28845;DHT22;15976;47.938;7.758;2023-04-25T16:26:17;12.40;69.00
28845;DHT22;15976;47.938;7.758;2023-04-25T16:28:44;12.40;68.70
28845;DHT22;15976;47.938;7.758;2023-04-25T16:31:12;12.50;68.60
28845;DHT22;15976;47.938;7.758;2023-04-25T16:33:39;12.40;68.20
28845;DHT22;15976;47.938;7.758;2023-04-25T16:36:06;12.40;68.70
28845;DHT22;15976;47.938;7.758;2023-04-25T16:38:35;12.50;68.90